Terminal Aerodrome Forecast
Issued by NWS

Home | Current Version | Previous Version | Text Only | Print | Product List | Glossary On
Versions: 1 2 3 4 5 6 7 8 9 10 11 12 13 14 15 16
000
FTUS46 KMTR 240000 AAA
TAFSNS
TAF AMD
KSNS 240044Z 2401/2424 27012KT P6SM SKC
      TEMPO 2401/2403 BKN008
     FM240300 29006KT P6SM OVC007
     FM240800 VRB03KT P6SM OVC007
     FM241800 27011KT P6SM SKC=

USA.gov is the U.S. government's official web portal to all federal, state and local government web resources and services.